Albany, NY

10:53 PM EDT on October 25, 2014 (GMT -0400)
WNYT TV - Menands | Change Station
CLOSE
Current Station
Personal Weather Station
Location: 715 North Pearl Street Albany, NY
Elevation: 50 ft
Nearby Weather Stations

Elev 50 ft 42.68 °N, 73.74 °W | Updated 10 seconds ago

Partly Cloudy
Partly Cloudy
57.0 °F
Feels Like 57.0 °F
N
0.0
Wind Variable Wind from ENE
Gusts 0.0 mph

Today
High -- | Low -- °F
--% Chance of Precip.
Yesterday
High -- | Low -- °F
Precip. -- in
7:20 AM 5:57 PM
Waxing Crescent, 5% visible
Pressure 29.56 in
Visibility 10.0 miles
Clouds Few 4900 ft
Few 6000 ft
Scattered Clouds 7500 ft
Dew Point 52 °F
Humidity 83%
Rainfall 0.02 in
Snow Depth Not available.
UV 0 out of 12
Pollen .70 out of 12
PM2.5 Good
Flu Activity Sporadic
METAR KALB 260151Z 26009KT 10SM FEW049 FEW060 SCT075 13/09 A2956 RMK AO2 RAB00E22 SLP009 P0001 T01280089 $

More Conditions Fewer Conditions

Pressure 29.56 in
Visibility 10.0 miles
Clouds Few 4900 ft
Few 6000 ft
Scattered Clouds 7500 ft
Dew Point 52 °F
Humidity 83%
Rainfall 0.02 in
Snow Depth Not available.
UV 0 out of 12
Pollen .70 out of 12
PM2.5 Good
Flu Activity Sporadic
METAR KALB 260151Z 26009KT 10SM FEW049 FEW060 SCT075 13/09 A2956 RMK AO2 RAB00E22 SLP009 P0001 T01280089 $

More Conditions Fewer Conditions

10-Day Weather Forecast

Almanac

Astronomy

Oct. 25, 2014 Rise Set
Actual Time 7:20 AM EDT 5:57 PM EDT
Civil Twilight 6:51 AM EDT 6:26 PM EDT
Nautical Twilight 6:18 AM EDT 6:59 PM EDT
Astronomical Twilight 5:45 AM EDT 7:31 PM EDT
Moon 8:57 AM EDT (10/25) 7:16 PM EDT (10/25)
Length of Visible Light 11h 35m
Length of Day
10h 37m
Tomorrow will be 2m 40s shorter.
Waxing Crescent, 5% of the Moon is Illuminated
Today
Waxing Crescent
Oct 30
First Quarter
Nov 6
Full
Nov 14
Last Quarter
Nov 22
New

Today's Extremes

State Highs State Lows

Community

WunderPhotos

Upload Photos

1,765,086 photos uploaded!

Nearby

Air Quality

  Air Quality AQ Index Pollutant
Yesterday Good
OZONE
Yesterday Good
PM2.5
Current Good
PM2.5
Saturday Good
PM2.5
Sunday Good
PM2.5
Monday Good
PM2.5

Snow Depth

Station Depth Elevation
No new snow has been reported.

Earthquake Activity

City Distance Mag. Time & Date
No recent earthquake activity has been reported nearby.
Minimum magnitude displayed is 2.5.

Coastal Water Temperatures

Place Temperature
No Stations Reporting

Nearby Weather Stations